WetterOnline ( https://www.wetteronline.de )

Wetter aktuell St. Wendel

Aktuelles Wetter: Tholey (398m)

6-stündlich | Neueste Meldungen
Ortszeit Temperatur Wetter
Mo, 22.04. 8:00 12.7° C wolkenlos
Mo, 22.04. 2:00 15.6° C bewölkt
So, 21.04. 20:00 19.4° C wolkenlos
So, 21.04. 14:00 20.3° C wolkenlos
So, 21.04. 8:00 12.4° C wolkenlos
So, 21.04. 2:00 13.8° C wolkenlos
Sa, 20.04. 20:00 19.4° C wolkenlos
Sa, 20.04. 14:00 20.9° C wolkenlos
Ortszeit Temperatur Wetter
Mo, 22.04. 10:00 16.3° C leicht bewölkt
Mo, 22.04. 9:50 16.3° C wolkig
Mo, 22.04. 9:40 16.1° C wolkig
Mo, 22.04. 9:30 15.2° C fast wolkenlos
Mo, 22.04. 9:20 15.2° C fast wolkenlos
Mo, 22.04. 9:10 15.2° C wolkenlos
Mo, 22.04. 9:00 14.4° C wolkenlos
Mo, 22.04. 8:30 13.3° C fast wolkenlos
Mo, 22.04. 8:00 12.7° C wolkenlos
Mo, 22.04. 7:30 11.9° C wolkenlos
Mo, 22.04. 7:00 11.1° C leicht bewölkt
Ortszeit Relative Feuchte Sichtweite
Mo, 22.04. 8:00 42% 8 km
Mo, 22.04. 2:00 30% 65 km
So, 21.04. 20:00 25% 70 km
So, 21.04. 14:00 27% 20 km
So, 21.04. 8:00 49% 5.0 km
So, 21.04. 2:00 44% 35 km
Sa, 20.04. 20:00 24% 60 km
Sa, 20.04. 14:00 32% 19 km
Ortszeit Relative Feuchte Sichtweite
Mo, 22.04. 10:00 37% 14 km
Mo, 22.04. 9:50 37% -
Mo, 22.04. 9:40 39% -
Mo, 22.04. 9:30 38% 19 km
Mo, 22.04. 9:20 38% -
Mo, 22.04. 9:10 40% -
Mo, 22.04. 9:00 41% 20 km
Mo, 22.04. 8:30 41% 16 km
Mo, 22.04. 8:00 42% 8 km
Mo, 22.04. 7:30 44% 10 km
Mo, 22.04. 7:00 47% 29 km
Ortszeit Niederschlagsmenge Niederschlagsart
Mo, 22.04. 8:00 0.0 l/m2 in 12 Std. -
Mo, 22.04. 2:00 0.0 l/m2 in 6 Std. -
So, 21.04. 20:00 0.0 l/m2 in 12 Std. -
So, 21.04. 14:00 0.0 l/m2 in 6 Std. -
So, 21.04. 8:00 0.0 l/m2 in 12 Std. -
So, 21.04. 2:00 0.0 l/m2 in 6 Std. -
Sa, 20.04. 20:00 0.0 l/m2 in 12 Std. -
Sa, 20.04. 14:00 0.0 l/m2 in 6 Std. -
Ortszeit Niederschlagsmenge Niederschlagsart
Mo, 22.04. 10:00 0.0 l/m2 in 1 Std. -
Mo, 22.04. 9:50 keine Meldung -
Mo, 22.04. 9:40 keine Meldung -
Mo, 22.04. 9:30 0.0 l/m2 in 1 Std. -
Mo, 22.04. 9:20 keine Meldung -
Mo, 22.04. 9:10 keine Meldung -
Mo, 22.04. 9:00 0.0 l/m2 in 1 Std. -
Mo, 22.04. 8:30 0.0 l/m2 in 1 Std. -
Mo, 22.04. 8:00 0.0 l/m2 in 1 Std. -
Mo, 22.04. 7:30 0.0 l/m2 in 1 Std. -
Mo, 22.04. 7:00 0.0 l/m2 in 1 Std. -
Ortszeit Stärke Spitze Richtung
km/h Bft. km/h Grad Sektor
Mo, 22.04. 8:00 20 4 31 50° NO
Mo, 22.04. 2:00 20 4 30 50° NO
So, 21.04. 20:00 14 3 36 70° O
So, 21.04. 14:00 18 3 40 80° O
So, 21.04. 8:00 19 3 28 50° NO
So, 21.04. 2:00 18 3 32 50° NO
Sa, 20.04. 20:00 18 3 43 60° NO
Sa, 20.04. 14:00 24 4 41 100° O
Ortszeit Stärke Spitze Richtung
km/h Bft. km/h Grad Sektor
Mo, 22.04. 10:00 22 4 35 80° O
Mo, 22.04. 9:50 22 4 - 80° O
Mo, 22.04. 9:40 20 4 - 80° O
Mo, 22.04. 9:30 19 3 31 80° O
Mo, 22.04. 9:20 19 3 - 80° O
Mo, 22.04. 9:10 18 3 - 80° O
Mo, 22.04. 9:00 18 3 29 70° O
Mo, 22.04. 8:30 18 3 29 70° O
Mo, 22.04. 8:00 20 4 31 50° NO
Mo, 22.04. 7:30 18 3 25 50° NO
Mo, 22.04. 7:00 18 3 25 50° NO
Ortszeit Untergrenze Bedeckung Gattung
total tief tief mittel hoch
Mo, 22.04. 8:00 - 0/8 0/8 - - -
Mo, 22.04. 2:00 5700 m 8/8 5/8 - - -
So, 21.04. 20:00 - 0/8 0/8 - - -
So, 21.04. 14:00 - 0/8 0/8 - - -
So, 21.04. 8:00 - 0/8 0/8 - - -
So, 21.04. 2:00 - 0/8 0/8 - - -
Sa, 20.04. 20:00 - 0/8 0/8 - - -
Sa, 20.04. 14:00 - 0/8 0/8 - - -
Ortszeit Bedeckungsgrad in Achtel und Wolkenuntergrenze
Mo, 22.04. 10:00 5(9000m) 8(9000m)
Mo, 22.04. 9:50 5(9000m) 8(9000m)
Mo, 22.04. 9:40 4(9000m) 7(9000m)
Mo, 22.04. 9:30 1(9000m) 5(9000m)
Mo, 22.04. 9:20 1(9000m)
Mo, 22.04. 9:10 keine Wolken
Mo, 22.04. 9:00 keine Wolken
Mo, 22.04. 8:30 2(9000m)
Mo, 22.04. 8:00 keine Wolken
Mo, 22.04. 7:30 keine Wolken
Mo, 22.04. 7:00 5(9000m) 2(9000m)
Ortszeit Luftdruck NN (hPa) Tendenz (hPa in 3 Std.)
Mo, 22.04. 8:00 1011 - 1,4
Mo, 22.04. 2:00 1013 - 1,1
So, 21.04. 20:00 1014 - 1,5
So, 21.04. 14:00 1018 - 1,9
So, 21.04. 8:00 1022 - 0,7
So, 21.04. 2:00 1024 - 1,1
Sa, 20.04. 20:00 1024 - 0,9
Sa, 20.04. 14:00 1026 - 0,8
Ortszeit Luftdruck NN (hPa) Tendenz (hPa in 3 Std.)
Mo, 22.04. 10:00 1010 - 0,9
Mo, 22.04. 9:50 1010 keine Meldung
Mo, 22.04. 9:40 1010 keine Meldung
Mo, 22.04. 9:30 1010 - 0,9
Mo, 22.04. 9:20 1010 keine Meldung
Mo, 22.04. 9:10 1010 keine Meldung
Mo, 22.04. 9:00 1010 - 1,0
Mo, 22.04. 8:30 1011 - 1,2
Mo, 22.04. 8:00 1011 - 1,4
Mo, 22.04. 7:30 1011 - 1,4
Mo, 22.04. 7:00 1011 - 1,5
Ortszeit Schneehöhe (cm)
Mo, 22.04. 8:00 0
Mo, 22.04. 2:00 0
So, 21.04. 20:00 0
So, 21.04. 14:00 0
So, 21.04. 8:00 0
So, 21.04. 2:00 0
Sa, 20.04. 20:00 0
Sa, 20.04. 14:00 0
Ortszeit Schneehöhe (cm)
Mo, 22.04. 10:00 0
Mo, 22.04. 9:50 0
Mo, 22.04. 9:40 0
Mo, 22.04. 9:30 0
Mo, 22.04. 9:20 0
Mo, 22.04. 9:10 0
Mo, 22.04. 9:00 0
Mo, 22.04. 8:30 0
Mo, 22.04. 8:00 0
Mo, 22.04. 7:30 0
Mo, 22.04. 7:00 0
Link zu dieser Seite / Seite empfehlen

Das Wetter in ...